Kaneohe Bay Mcas (Marion E Carl Field) Information

FAA: NGF - ICAO: PHNG

Kaneohe Bay Mcas (Marion E Carl Field) (Airport) Location

State Hawaii
County Honolulu
City Kaneohe
Kaneohe Bay Mcas (Marion E Carl Field) (Airport) is 2 miles southwest of Kaneohe, HI.
Latitude 21-27-01.6400N
Longitude 157-46-04.6150W
Elevation 23ft

Kaneohe Bay Mcas (Marion E Carl Field) METARs

METAR PHNG 200257Z 04011KT 10SM FEW030 26/18 A3001 RMK AO2 SLP157 T02560183 $
Altimeter 30.01"
Temperature 25.6°C (78.1°F)
Wind 40° at 11KT
Clouds few at 3,000ft
Visibility 10.0mi
Time observed: 2021-10-20T02:57:00Z

Kaneohe Bay Mcas (Marion E Carl Field) (Airport) Details

Status Operational
Activation September 1946
Ownership Military - Navy
Usage Private
Chart HAWAIIAN ISLANDS
ATC on-site Yes
Beacon schedule sunset-sunrise
Beacon color split clear green

Kaneohe Bay Mcas (Marion E Carl Field) (Airport) Contacts

Owner US NAVY
Owner address OCEANOGRAPHIC OFC - CODE 3142, WASHINGTON, DC 20373
Owner phone N/A
Manager CHAD WIGGINS
Manager address PO BOX 1056, KAMUELA, HI 96743
Manager phone 808-756-2080

Kaneohe Bay Mcas (Marion E Carl Field) Radio Frequencies

Kaneohe Bay Mcas (Marion E Carl Field) (Airport) Radio Frequencies

UNICOM N/A
Common traffic advisory frequency (CTAF) 120.7